Time;durP1;ratioP1;P1;durP2;ratioP2;P2;SDS_P1;SDS_P2;PMS_P1;PMS_P2;Temp;Humidity;BMP_temperature;BMP_pressure;BME280_temperature;BME280_humidity;BME280_pressure;Samples;Min_cycle;Max_cycle;Signal;HPM_P1;HPM_P2
2022/03/25 00:01:26;;;;;;;40.30;26.93;;;5.20;19.00;;;;;;5052691;28;20184;-77
2022/03/25 00:03:52;;;;;;;39.53;25.63;;;5.20;99.90;;;;;;5031956;28;20686;-77
2022/03/25 00:06:18;;;;;;;43.23;26.23;;;5.10;1.00;;;;;;5044329;28;20200;-77
2022/03/25 00:08:43;;;;;;;37.57;24.83;;;5.00;1.00;;;;;;5026478;28;20187;-77
2022/03/25 00:11:09;;;;;;;41.10;26.03;;;5.00;1.00;;;;;;5043459;28;20176;-78
2022/03/25 00:13:34;;;;;;;40.20;25.93;;;5.00;1.00;;;;;;5024902;28;20196;-78
2022/03/25 00:16:00;;;;;;;36.07;25.90;;;5.00;99.90;;;;;;5037708;28;20188;-77
2022/03/25 00:18:26;;;;;;;35.90;26.37;;;4.90;1.00;;;;;;5037193;28;20647;-78
2022/03/25 00:20:51;;;;;;;41.23;26.00;;;4.90;1.00;;;;;;5019361;28;20176;-78
2022/03/25 00:23:17;;;;;;;47.40;27.00;;;4.90;99.90;;;;;;5018996;28;20200;-78
2022/03/25 00:25:42;;;;;;;42.13;25.87;;;4.90;99.90;;;;;;5019270;28;20212;-78
2022/03/25 00:28:08;;;;;;;36.13;24.20;;;4.80;1.00;;;;;;5037021;28;20179;-78
2022/03/25 00:30:34;;;;;;;39.10;27.10;;;4.70;1.00;;;;;;5019709;28;20188;-78
2022/03/25 00:32:59;;;;;;;40.90;26.53;;;4.70;99.90;;;;;;5036209;28;20250;-78
2022/03/25 00:35:26;;;;;;;37.23;27.13;;;4.70;99.90;;;;;;5019374;28;20184;-78
2022/03/25 00:37:52;;;;;;;42.40;25.93;;;4.70;99.90;;;;;;5019204;28;20557;-77
2022/03/25 00:40:17;;;;;;;41.67;26.73;;;4.70;99.90;;;;;;5036395;28;20184;-78
2022/03/25 00:42:43;;;;;;;43.13;26.70;;;4.60;1.00;;;;;;5049870;23;20289;-78
2022/03/25 00:45:10;;;;;;;35.07;25.37;;;4.50;1.00;;;;;;5053864;28;20167;-79
2022/03/25 00:47:36;;;;;;;41.27;27.23;;;4.40;93.80;;;;;;5053934;28;20182;-78
2022/03/25 00:50:02;;;;;;;38.63;25.87;;;4.50;1.00;;;;;;5053780;28;20590;-78
2022/03/25 00:52:28;;;;;;;35.17;25.70;;;4.40;99.90;;;;;;5053569;28;20199;-79
2022/03/25 00:54:54;;;;;;;36.67;25.07;;;4.40;99.90;;;;;;5053480;28;20171;-78
2022/03/25 00:57:19;;;;;;;37.40;25.50;;;4.30;99.90;;;;;;5053528;28;20172;-78
2022/03/25 00:59:45;;;;;;;38.37;25.03;;;4.30;1.00;;;;;;5054603;28;20646;-77
2022/03/25 01:02:11;;;;;;;37.53;25.13;;;4.30;1.00;;;;;;5054589;28;20175;-78
2022/03/25 01:04:37;;;;;;;34.67;23.90;;;4.30;1.00;;;;;;5054845;28;20176;-78
2022/03/25 01:07:03;;;;;;;36.43;24.60;;;4.30;1.00;;;;;;5053307;28;20242;-76
2022/03/25 01:09:29;;;;;;;35.90;25.63;;;4.30;26.40;;;;;;5054509;28;20249;-78
2022/03/25 01:11:54;;;;;;;36.60;25.40;;;4.20;1.00;;;;;;5053261;28;20207;-78
2022/03/25 01:14:21;;;;;;;35.27;22.87;;;4.20;1.00;;;;;;5052971;28;20187;-78
2022/03/25 01:16:47;;;;;;;33.13;23.60;;;4.20;1.00;;;;;;5053123;28;20266;-76
2022/03/25 01:19:12;;;;;;;36.80;24.03;;;4.10;64.00;;;;;;5053696;28;20203;-79
2022/03/25 01:21:39;;;;;;;36.00;24.00;;;4.10;99.90;;;;;;5053267;28;20302;-77
2022/03/25 01:24:05;;;;;;;34.37;23.23;;;4.00;99.90;;;;;;5054009;28;20294;-77
2022/03/25 01:26:31;;;;;;;33.50;24.27;;;4.00;99.90;;;;;;5054017;28;20278;-78
2022/03/25 01:28:57;;;;;;;32.07;23.27;;;3.90;99.90;;;;;;5052783;28;20203;-78
2022/03/25 01:31:22;;;;;;;32.37;22.57;;;3.90;99.90;;;;;;5054088;28;20519;-78
2022/03/25 01:33:48;;;;;;;38.10;24.27;;;3.90;1.00;;;;;;5052720;28;20191;-77
2022/03/25 01:36:14;;;;;;;38.50;24.87;;;3.90;1.00;;;;;;5052324;28;20207;-77
2022/03/25 01:38:39;;;;;;;37.17;25.47;;;3.80;1.00;;;;;;5056603;28;20199;-78
2022/03/25 01:41:07;;;;;;;33.77;23.37;;;3.80;1.00;;;;;;5063061;28;20183;-78
2022/03/25 01:43:33;;;;;;;35.37;23.33;;;3.70;1.00;;;;;;5063634;28;20203;-78
2022/03/25 01:45:58;;;;;;;33.53;22.73;;;3.70;1.00;;;;;;5063649;28;20244;-78
2022/03/25 01:48:24;;;;;;;35.03;24.63;;;3.70;1.00;;;;;;5059697;28;20229;-78
2022/03/25 01:50:50;;;;;;;36.87;23.03;;;3.70;1.00;;;;;;5053938;28;20281;-77
2022/03/25 01:53:19;;;;;;;33.50;23.17;;;3.70;1.00;;;;;;5053438;28;20542;-77
2022/03/25 01:55:56;;;;;;;37.30;24.23;;;3.70;1.00;;;;;;5050525;28;20175;-78
2022/03/25 01:58:23;;;;;;;38.93;24.53;;;3.60;1.00;;;;;;5052056;28;20182;-77
2022/03/25 02:00:49;;;;;;;35.93;23.30;;;3.60;1.00;;;;;;5052107;28;20176;-77
2022/03/25 02:03:16;;;;;;;37.77;24.23;;;3.60;1.00;;;;;;5052126;28;20195;-78
2022/03/25 02:05:43;;;;;;;34.77;23.03;;;3.50;1.00;;;;;;5053319;28;20209;-78
2022/03/25 02:08:09;;;;;;;37.70;23.00;;;3.50;1.00;;;;;;5053589;28;20163;-78
2022/03/25 02:10:35;;;;;;;34.93;22.83;;;3.50;1.00;;;;;;5052256;28;20175;-78
2022/03/25 02:13:02;;;;;;;32.97;21.77;;;3.40;1.00;;;;;;5053182;28;20198;-78
2022/03/25 02:15:36;;;;;;;38.70;24.23;;;3.50;1.00;;;;;;5053291;28;20171;-78
2022/03/25 02:18:07;;;;;;;36.57;22.90;;;3.40;1.00;;;;;;5052054;28;20170;-77
2022/03/25 02:20:34;;;;;;;36.30;21.93;;;3.40;1.00;;;;;;5051902;28;20182;-77
2022/03/25 02:23:01;;;;;;;32.57;22.63;;;3.30;21.40;;;;;;5053065;28;20194;-78
2022/03/25 02:25:29;;;;;;;36.03;23.83;;;3.30;17.60;;;;;;5053110;28;20607;-78
2022/03/25 02:27:57;;;;;;;38.33;25.30;;;3.30;33.50;;;;;;5052160;28;20597;-78
2022/03/25 02:30:23;;;;;;;34.80;23.53;;;3.20;35.00;;;;;;5051814;28;20175;-78
2022/03/25 02:32:48;;;;;;;37.83;24.33;;;3.20;36.00;;;;;;5053386;28;20260;-78
2022/03/25 02:35:14;;;;;;;38.00;25.00;;;3.20;37.00;;;;;;5053648;28;20180;-78
2022/03/25 02:37:39;;;;;;;39.43;23.97;;;3.20;59.50;;;;;;5054291;28;20186;-78
2022/03/25 02:40:06;;;;;;;41.13;25.50;;;3.10;52.10;;;;;;5053495;28;20198;-79
2022/03/25 02:42:31;;;;;;;33.83;23.83;;;3.10;32.60;;;;;;5053022;28;20199;-77
2022/03/25 02:44:57;;;;;;;33.77;22.70;;;3.00;95.20;;;;;;5052986;28;20530;-78
2022/03/25 02:47:23;;;;;;;41.60;24.10;;;3.00;99.90;;;;;;5052900;28;20183;-78
2022/03/25 02:49:48;;;;;;;32.90;22.30;;;3.00;99.90;;;;;;5055286;28;20164;-78
2022/03/25 02:52:14;;;;;;;35.50;23.83;;;2.90;99.90;;;;;;5056694;28;20768;-78
2022/03/25 02:54:39;;;;;;;35.30;24.13;;;2.90;99.90;;;;;;5057184;28;20167;-77
2022/03/25 02:57:05;;;;;;;36.73;25.87;;;2.90;99.90;;;;;;5055843;28;20167;-78
2022/03/25 02:59:31;;;;;;;37.20;24.87;;;2.90;99.90;;;;;;5057069;28;20179;-76
2022/03/25 03:01:57;;;;;;;37.83;25.67;;;2.90;99.90;;;;;;5057116;28;20180;-77
2022/03/25 03:04:22;;;;;;;37.33;23.73;;;2.80;99.90;;;;;;5055427;28;20199;-77
2022/03/25 03:06:48;;;;;;;34.53;24.03;;;2.80;99.90;;;;;;5056278;28;20208;-77
2022/03/25 03:09:14;;;;;;;35.77;24.43;;;2.80;99.90;;;;;;5055601;28;20313;-78
2022/03/25 03:11:40;;;;;;;36.30;24.97;;;2.80;99.90;;;;;;5056893;28;20211;-78
2022/03/25 03:14:05;;;;;;;38.90;25.90;;;2.80;99.90;;;;;;5055509;28;20245;-78
2022/03/25 03:16:31;;;;;;;45.37;27.40;;;2.70;99.90;;;;;;5056664;28;20171;-78
2022/03/25 03:18:57;;;;;;;40.87;26.97;;;2.70;99.90;;;;;;5056362;28;20216;-78
2022/03/25 03:21:24;;;;;;;41.10;27.07;;;2.70;99.90;;;;;;5056262;28;20176;-78
2022/03/25 03:23:51;;;;;;;44.73;25.97;;;2.70;99.90;;;;;;5056147;28;20283;-77
2022/03/25 03:26:18;;;;;;;38.87;25.50;;;2.70;99.90;;;;;;5054820;28;20360;-77
2022/03/25 03:28:44;;;;;;;39.87;26.37;;;2.70;99.90;;;;;;5055013;28;20190;-78
2022/03/25 03:31:09;;;;;;;42.63;26.67;;;2.60;99.90;;;;;;5056180;28;20168;-78
2022/03/25 03:33:35;;;;;;;41.03;26.43;;;2.60;99.90;;;;;;5056167;28;20701;-78
2022/03/25 03:36:01;;;;;;;39.80;26.73;;;2.60;99.90;;;;;;5056040;28;20168;-78
2022/03/25 03:38:26;;;;;;;40.97;27.47;;;2.50;99.90;;;;;;5056578;28;20204;-78
2022/03/25 03:40:52;;;;;;;43.03;29.10;;;2.50;99.90;;;;;;5055884;28;20188;-78
2022/03/25 03:43:17;;;;;;;44.57;27.93;;;2.40;99.90;;;;;;5055694;28;20744;-78
2022/03/25 03:45:43;;;;;;;45.90;28.73;;;2.40;99.90;;;;;;5054450;28;20199;-76
2022/03/25 03:48:08;;;;;;;42.43;26.97;;;2.40;99.90;;;;;;5056076;28;20626;-78
2022/03/25 03:50:34;;;;;;;42.67;28.23;;;2.50;99.90;;;;;;5055544;28;20179;-77
2022/03/25 03:53:00;;;;;;;41.93;28.67;;;2.40;99.90;;;;;;5054290;28;20195;-78
2022/03/25 03:55:26;;;;;;;44.83;27.93;;;2.40;99.90;;;;;;5056006;28;20267;-78
2022/03/25 03:57:51;;;;;;;47.10;29.27;;;2.40;99.90;;;;;;5053646;28;20191;-78
2022/03/25 04:00:17;;;;;;;45.90;29.23;;;2.40;99.90;;;;;;5055629;28;20192;-77
2022/03/25 04:02:47;;;;;;;42.33;27.73;;;2.30;99.90;;;;;;5054156;28;20204;-78
2022/03/25 04:05:13;;;;;;;42.60;27.20;;;2.30;99.90;;;;;;5055752;28;20626;-78
2022/03/25 04:07:48;;;;;;;40.50;27.53;;;2.30;99.90;;;;;;5055729;28;20176;-77
2022/03/25 04:10:17;;;;;;;45.80;28.23;;;2.30;99.90;;;;;;5054154;28;20179;-77
2022/03/25 04:12:43;;;;;;;47.23;28.63;;;2.20;99.90;;;;;;5055465;28;20222;-77
2022/03/25 04:15:10;;;;;;;44.33;28.83;;;2.20;99.90;;;;;;5053882;28;20598;-77
2022/03/25 04:17:39;;;;;;;44.40;29.43;;;2.20;99.90;;;;;;5053886;28;20638;-77
2022/03/25 04:20:07;;;;;;;50.33;28.23;;;2.20;99.90;;;;;;5053890;28;20293;-77
2022/03/25 04:22:33;;;;;;;43.33;28.23;;;2.20;99.90;;;;;;5053802;28;20198;-77
2022/03/25 04:24:58;;;;;;;41.83;26.67;;;2.10;99.90;;;;;;5054988;28;20168;-77
2022/03/25 04:27:24;;;;;;;43.87;27.60;;;2.10;99.90;;;;;;5054839;28;20214;-77
2022/03/25 04:29:49;;;;;;;41.47;27.50;;;2.10;99.90;;;;;;5055321;28;20206;-78
2022/03/25 04:32:15;;;;;;;45.40;27.47;;;2.10;99.90;;;;;;5054922;28;20266;-78
2022/03/25 04:34:40;;;;;;;46.97;29.83;;;2.00;99.90;;;;;;5053549;28;20179;-78
2022/03/25 04:37:07;;;;;;;45.80;28.10;;;2.00;99.90;;;;;;5054767;28;20178;-77
2022/03/25 04:39:32;;;;;;;41.27;27.60;;;2.00;99.90;;;;;;5054695;28;20168;-78
2022/03/25 04:41:58;;;;;;;40.70;27.53;;;2.00;99.90;;;;;;5054610;28;20532;-77
2022/03/25 04:44:23;;;;;;;46.73;29.40;;;2.00;99.90;;;;;;5054450;28;20215;-77
2022/03/25 04:46:49;;;;;;;46.40;29.60;;;2.00;99.90;;;;;;5053284;28;20579;-77
2022/03/25 04:49:14;;;;;;;49.23;30.23;;;1.90;99.90;;;;;;5054554;28;20172;-77
2022/03/25 04:51:40;;;;;;;49.90;30.10;;;2.00;99.90;;;;;;5053205;28;20172;-77
2022/03/25 04:54:06;;;;;;;48.23;27.57;;;1.90;99.90;;;;;;5054392;28;20195;-77
2022/03/25 04:56:34;;;;;;;43.67;29.33;;;1.90;99.90;;;;;;5054719;28;20179;-78
2022/03/25 04:58:59;;;;;;;46.70;29.53;;;1.90;99.90;;;;;;5054428;28;20218;-78
2022/03/25 05:01:25;;;;;;;49.60;30.37;;;1.90;99.90;;;;;;5054501;28;20179;-77
2022/03/25 05:03:50;;;;;;;43.23;28.57;;;1.90;99.90;;;;;;5052984;28;20199;-78
2022/03/25 05:06:16;;;;;;;49.33;30.80;;;1.90;99.90;;;;;;5054218;28;20198;-78
2022/03/25 05:08:41;;;;;;;46.37;29.63;;;1.90;99.90;;;;;;5054116;28;20172;-77
2022/03/25 05:11:07;;;;;;;46.47;28.00;;;1.90;99.90;;;;;;5053574;28;20171;-77
2022/03/25 05:13:33;;;;;;;50.97;29.60;;;1.80;99.90;;;;;;5052839;28;20195;-77
2022/03/25 05:15:59;;;;;;;44.30;29.37;;;1.80;99.90;;;;;;5054094;28;20689;-76
2022/03/25 05:18:24;;;;;;;48.93;29.87;;;1.80;99.90;;;;;;5053860;28;20186;-77
2022/03/25 05:20:50;;;;;;;48.70;29.97;;;1.80;99.90;;;;;;5053917;28;20183;-77
2022/03/25 05:23:16;;;;;;;47.33;30.10;;;1.80;99.90;;;;;;5052464;28;20203;-77
2022/03/25 05:25:41;;;;;;;45.63;28.53;;;1.70;99.90;;;;;;5053692;28;20238;-78
2022/03/25 05:28:07;;;;;;;44.20;28.70;;;1.70;99.90;;;;;;5052418;28;20176;-77
2022/03/25 05:30:35;;;;;;;44.10;28.07;;;1.70;99.90;;;;;;5053876;28;20613;-77
2022/03/25 05:33:01;;;;;;;40.33;26.57;;;1.70;99.90;;;;;;5054912;28;20230;-78
2022/03/25 05:35:28;;;;;;;45.80;27.37;;;1.70;99.90;;;;;;5053063;28;20182;-78
2022/03/25 05:37:55;;;;;;;44.97;28.07;;;1.70;99.90;;;;;;5052553;28;20554;-78
2022/03/25 05:40:23;;;;;;;50.33;27.80;;;1.70;99.90;;;;;;5054108;28;20175;-78
2022/03/25 05:42:49;;;;;;;44.80;29.23;;;1.70;99.90;;;;;;5053547;28;20207;-78
2022/03/25 05:45:20;;;;;;;45.17;29.07;;;1.70;99.90;;;;;;5054152;28;20560;-78
2022/03/25 05:47:46;;;;;;;49.70;28.20;;;1.60;99.90;;;;;;5054051;28;20534;-77
2022/03/25 05:50:12;;;;;;;43.33;28.97;;;1.70;99.90;;;;;;5053727;28;20167;-78
2022/03/25 05:52:41;;;;;;;44.70;29.60;;;1.70;99.90;;;;;;5054163;28;20179;-77
2022/03/25 05:55:07;;;;;;;55.67;31.27;;;1.70;99.90;;;;;;5053655;28;20243;-79
2022/03/25 05:57:34;;;;;;;43.57;28.53;;;1.70;99.90;;;;;;5053195;28;20163;-77
2022/03/25 06:00:00;;;;;;;44.80;29.00;;;1.70;99.90;;;;;;5053182;28;20170;-77
2022/03/25 06:02:26;;;;;;;46.70;28.47;;;1.70;99.90;;;;;;5053805;28;20279;-77
2022/03/25 06:04:52;;;;;;;54.15;34.38;;;1.70;99.90;;;;;;5054325;28;20431;-77
2022/03/25 06:07:18;;;;;;;51.73;31.07;;;1.80;99.90;;;;;;5053246;28;20283;-77
2022/03/25 06:09:43;;;;;;;45.83;31.27;;;1.80;99.90;;;;;;5053228;28;20680;-77
2022/03/25 06:12:11;;;;;;;48.20;30.67;;;1.90;99.90;;;;;;5052855;28;20240;-77
2022/03/25 06:14:36;;;;;;;51.90;31.57;;;1.90;99.90;;;;;;5053665;28;20656;-77
2022/03/25 06:17:02;;;;;;;43.13;28.87;;;1.90;99.90;;;;;;5053113;28;20175;-77
2022/03/25 06:19:29;;;;;;;48.47;29.10;;;1.90;99.90;;;;;;5052691;28;20179;-76
2022/03/25 06:21:56;;;;;;;47.90;30.87;;;1.90;99.90;;;;;;5052901;28;20174;-76
2022/03/25 06:24:21;;;;;;;47.20;30.17;;;1.90;99.90;;;;;;5051392;28;20223;-77
2022/03/25 06:26:47;;;;;;;45.30;29.70;;;2.00;99.90;;;;;;5052643;28;20223;-76
2022/03/25 06:29:13;;;;;;;51.67;32.60;;;2.00;99.90;;;;;;5053007;28;20163;-77
2022/03/25 06:31:38;;;;;;;49.80;29.87;;;2.10;99.90;;;;;;5052695;28;20183;-77
2022/03/25 06:34:04;;;;;;;43.43;28.90;;;2.10;99.90;;;;;;5052540;28;20196;-77
2022/03/25 06:36:29;;;;;;;55.10;38.28;;;2.20;99.90;;;;;;5054593;28;20491;-77
2022/03/25 06:38:55;;;;;;;49.07;33.00;;;2.20;99.90;;;;;;5052929;28;20209;-76
2022/03/25 06:41:21;;;;;;;49.37;31.70;;;2.30;99.90;;;;;;5051352;28;20184;-77
2022/03/25 06:43:46;;;;;;;49.00;31.13;;;2.30;99.90;;;;;;5071822;22;20286;-92
2022/03/25 06:46:14;;;;;;;46.47;30.10;;;3.10;99.90;;;;;;5077052;28;20213;-94
2022/03/25 06:48:40;;;;;;;54.63;31.47;;;2.50;99.90;;;;;;5077671;28;20188;-94
2022/03/25 06:51:06;;;;;;;47.83;30.80;;;2.50;99.90;;;;;;5077606;28;20242;-95
2022/03/25 06:53:32;;;;;;;47.63;32.63;;;2.60;99.90;;;;;;5078083;28;20194;-94
2022/03/25 06:55:58;;;;;;;47.17;30.73;;;2.60;99.90;;;;;;5077724;28;20167;-94
2022/03/25 06:58:23;;;;;;;50.80;33.37;;;2.70;99.90;;;;;;5077979;28;20241;-95
2022/03/25 07:00:49;;;;;;;57.57;34.77;;;2.80;99.90;;;;;;5077497;28;20168;-93
2022/03/25 07:03:15;;;;;;;50.70;32.07;;;2.90;99.90;;;;;;5077919;28;20183;-93
2022/03/25 07:05:41;;;;;;;51.37;32.13;;;2.90;99.90;;;;;;5077848;28;20262;-93
2022/03/25 07:08:09;;;;;;;52.77;31.90;;;3.00;99.90;;;;;;5077963;28;20207;-93
2022/03/25 07:10:35;;;;;;;53.67;31.93;;;3.10;99.90;;;;;;5077856;28;20175;-94
2022/03/25 07:13:01;;;;;;;48.53;31.70;;;3.20;99.90;;;;;;5077842;28;20160;-93
2022/03/25 07:15:26;;;;;;;54.10;32.40;;;3.30;99.90;;;;;;5077502;28;20207;-93
2022/03/25 07:17:52;;;;;;;47.17;30.57;;;2.40;99.90;;;;;;5077759;28;20279;-93
2022/03/25 07:20:21;;;;;;;48.37;30.53;;;3.50;99.90;;;;;;5078285;28;20168;-93
2022/03/25 07:22:50;;;;;;;45.80;30.43;;;3.60;99.90;;;;;;5077698;28;20156;-93
2022/03/25 07:25:17;;;;;;;46.10;31.70;;;3.70;99.90;;;;;;5078009;28;20255;-92
2022/03/25 07:27:44;;;;;;;50.83;30.93;;;3.70;99.90;;;;;;5077694;28;20148;-92
2022/03/25 07:30:12;;;;;;;50.23;31.30;;;3.90;99.90;;;;;;5077574;28;20160;-93
2022/03/25 07:32:38;;;;;;;53.07;33.27;;;3.90;99.90;;;;;;5077714;28;20186;-93
2022/03/25 07:35:04;;;;;;;55.27;35.43;;;4.00;99.90;;;;;;5081138;28;20191;-92
2022/03/25 07:37:29;;;;;;;54.70;34.23;;;4.10;99.90;;;;;;5081105;28;20155;-93
2022/03/25 07:39:55;;;;;;;54.57;34.13;;;5.00;99.90;;;;;;5081240;28;20164;-93
2022/03/25 07:42:20;;;;;;;51.87;33.23;;;4.60;99.90;;;;;;5081214;28;20156;-93
2022/03/25 07:44:47;;;;;;;53.63;34.07;;;5.00;99.90;;;;;;5081002;28;20187;-93
2022/03/25 07:47:14;;;;;;;57.03;37.23;;;4.80;99.90;;;;;;5081499;28;20255;-93
2022/03/25 07:49:41;;;;;;;70.50;42.13;;;4.90;99.90;;;;;;5081484;28;20159;-93
2022/03/25 07:52:07;;;;;;;71.33;43.07;;;6.00;99.90;;;;;;5080919;28;20152;-93
2022/03/25 07:54:36;;;;;;;67.83;43.47;;;5.40;99.90;;;;;;5081285;28;20183;-93
2022/03/25 07:57:02;;;;;;;60.40;40.20;;;5.50;99.90;;;;;;5064992;23;20229;-78
2022/03/25 07:59:29;;;;;;;52.50;36.10;;;5.80;99.90;;;;;;5019876;28;20184;-78
2022/03/25 08:01:55;;;;;;;59.90;35.97;;;6.00;99.90;;;;;;5019612;28;20204;-78
2022/03/25 08:04:24;;;;;;;52.30;35.67;;;6.30;95.90;;;;;;5018165;28;20193;-78
2022/03/25 08:06:52;;;;;;;51.87;34.67;;;6.50;1.00;;;;;;5019870;28;20193;-78
2022/03/25 08:09:18;;;;;;;51.50;33.73;;;6.70;1.00;;;;;;5019503;28;20172;-78
2022/03/25 08:11:47;;;;;;;51.13;34.30;;;7.00;87.60;;;;;;5018064;28;20634;-78
2022/03/25 08:14:14;;;;;;;50.90;32.27;;;7.20;99.90;;;;;;5019393;28;20243;-78
2022/03/25 08:16:39;;;;;;;46.80;32.20;;;7.40;99.90;;;;;;5018606;28;20181;-78
2022/03/25 08:19:06;;;;;;;46.70;32.17;;;7.60;1.00;;;;;;5017278;28;20250;-78
2022/03/25 08:21:32;;;;;;;49.90;30.47;;;7.90;1.00;;;;;;5019336;28;20176;-78
2022/03/25 08:29:27;;;;;;;52.20;32.67;;;8.60;99.90;;;;;;5021879;28;20631;-78
2022/03/25 08:31:54;;;;;;;49.07;30.50;;;8.80;71.40;;;;;;5021489;28;20291;-78
2022/03/25 08:34:19;;;;;;;52.67;33.33;;;8.90;1.00;;;;;;5021320;28;20193;-79
2022/03/25 08:36:47;;;;;;;48.13;30.20;;;9.00;1.00;;;;;;5023556;28;20187;-79
2022/03/25 08:39:13;;;;;;;42.30;29.53;;;9.10;1.00;;;;;;5031015;28;20173;-80
2022/03/25 08:41:39;;;;;;;51.93;30.40;;;9.20;1.00;;;;;;5031829;28;20183;-80
2022/03/25 08:44:06;;;;;;;44.30;28.90;;;9.20;1.00;;;;;;5029184;28;20209;-80
2022/03/25 08:46:34;;;;;;;42.70;28.87;;;9.40;99.90;;;;;;5027766;28;20201;-80
2022/03/25 08:49:00;;;;;;;45.37;29.13;;;9.60;99.90;;;;;;5029192;28;20224;-80
2022/03/25 08:51:26;;;;;;;49.23;30.93;;;9.70;99.90;;;;;;5026932;28;20554;-79
2022/03/25 08:53:52;;;;;;;50.67;30.23;;;9.90;99.90;;;;;;5023408;28;20185;-78
2022/03/25 08:56:19;;;;;;;43.43;27.97;;;10.00;99.90;;;;;;5020606;28;20189;-80
2022/03/25 08:58:45;;;;;;;44.20;27.70;;;10.10;99.90;;;;;;5019555;28;20231;-78
2022/03/25 09:01:11;;;;;;;42.67;28.30;;;10.30;85.60;;;;;;5018812;28;20568;-79
2022/03/25 09:03:36;;;;;;;47.67;27.83;;;10.40;1.00;;;;;;5018817;28;20197;-78
2022/03/25 09:06:03;;;;;;;44.93;27.57;;;10.50;1.00;;;;;;5019859;28;20204;-77
2022/03/25 09:08:28;;;;;;;45.47;26.27;;;10.70;99.90;;;;;;5019839;28;20172;-78
2022/03/25 09:10:54;;;;;;;39.37;25.07;;;11.00;99.90;;;;;;5020095;28;20181;-76
2022/03/25 09:13:20;;;;;;;42.77;25.93;;;11.10;99.90;;;;;;5019245;28;20224;-78
2022/03/25 09:15:49;;;;;;;44.23;25.00;;;11.20;1.00;;;;;;5020068;28;20264;-77
2022/03/25 09:18:15;;;;;;;38.37;21.60;;;11.50;1.00;;;;;;5020263;28;20265;-78
2022/03/25 09:20:41;;;;;;;35.87;22.37;;;11.50;1.00;;;;;;5018980;28;20651;-78
2022/03/25 09:23:06;;;;;;;36.20;22.70;;;11.70;1.00;;;;;;5020117;28;20643;-77
2022/03/25 09:25:32;;;;;;;36.00;22.13;;;11.70;1.00;;;;;;5019913;28;20232;-77
2022/03/25 09:27:58;;;;;;;35.23;21.40;;;12.00;99.90;;;;;;5018735;28;20692;-78
2022/03/25 09:30:24;;;;;;;35.77;21.13;;;12.20;99.90;;;;;;5019744;28;20223;-78
2022/03/25 09:32:49;;;;;;;41.50;22.37;;;12.30;99.90;;;;;;5019925;28;20204;-78
2022/03/25 09:35:16;;;;;;;39.83;22.67;;;12.60;99.90;;;;;;5018087;28;20177;-77
2022/03/25 09:37:47;;;;;;;33.30;21.63;;;12.60;99.90;;;;;;5018788;28;20192;-78
2022/03/25 09:40:18;;;;;;;39.33;20.53;;;12.90;86.30;;;;;;5018907;28;20682;-78
2022/03/25 09:42:45;;;;;;;35.13;21.53;;;12.90;94.00;;;;;;5020192;28;20180;-77
2022/03/25 09:45:15;;;;;;;34.20;22.03;;;13.10;1.00;;;;;;5020095;28;20165;-78
2022/03/25 09:47:41;;;;;;;33.57;18.23;;;13.10;6.20;;;;;;5020222;28;20162;-78
2022/03/25 09:50:11;;;;;;;29.70;17.63;;;13.30;1.00;;;;;;5018645;28;20546;-78
2022/03/25 09:52:37;;;;;;;28.00;17.40;;;13.50;1.00;;;;;;5020509;28;20536;-78
2022/03/25 09:55:03;;;;;;;27.90;17.60;;;13.50;1.00;;;;;;5021050;28;20165;-78
2022/03/25 09:57:30;;;;;;;32.20;17.43;;;13.60;1.00;;;;;;5018470;28;20251;-78
2022/03/25 09:59:56;;;;;;;29.73;17.53;;;13.60;1.00;;;;;;5020617;28;20172;-79
2022/03/25 10:02:22;;;;;;;30.07;18.17;;;13.60;1.00;;;;;;5020639;28;20188;-78
2022/03/25 10:04:57;;;;;;;33.97;19.40;;;13.60;1.00;;;;;;5019276;28;20224;-78
2022/03/25 10:07:25;;;;;;;35.53;18.97;;;13.70;1.00;;;;;;5021276;28;20243;-78
2022/03/25 10:10:11;;;;;;;27.67;19.07;;;13.90;1.00;;;;;;5020969;28;20172;-78
2022/03/25 10:12:38;;;;;;;32.50;19.07;;;14.00;1.00;;;;;;5020037;28;20183;-78
2022/03/25 10:15:22;;;;;;;30.00;18.13;;;14.20;1.00;;;;;;5018860;28;20211;-78
2022/03/25 10:17:58;;;;;;;31.83;17.70;;;14.20;1.00;;;;;;5020137;28;20165;-78
2022/03/25 10:20:30;;;;;;;28.70;17.10;;;14.30;1.00;;;;;;5021767;28;20165;-78
2022/03/25 10:23:16;;;;;;;23.23;14.67;;;14.40;1.00;;;;;;5022225;28;20197;-78
2022/03/25 10:25:51;;;;;;;27.53;15.57;;;14.50;1.00;;;;;;5020842;28;20184;-77
2022/03/25 10:28:27;;;;;;;23.70;16.87;;;14.50;1.00;;;;;;5018780;28;20210;-76
2022/03/25 10:30:56;;;;;;;26.63;16.30;;;14.50;1.00;;;;;;5021191;28;20152;-79
2022/03/25 10:33:25;;;;;;;28.47;16.77;;;14.60;1.00;;;;;;5019864;28;20250;-77
2022/03/25 10:35:53;;;;;;;27.87;16.20;;;14.50;1.00;;;;;;5019716;28;20176;-78
2022/03/25 10:38:21;;;;;;;29.63;17.23;;;14.60;1.00;;;;;;5020770;28;20174;-78
2022/03/25 10:40:55;;;;;;;33.53;18.27;;;14.60;1.00;;;;;;5018826;28;20187;-77
2022/03/25 10:43:22;;;;;;;30.07;17.60;;;14.60;1.00;;;;;;5020439;28;20243;-78
2022/03/25 10:45:48;;;;;;;26.80;16.37;;;14.70;1.00;;;;;;5019534;28;20227;-77
2022/03/25 10:48:22;;;;;;;28.87;16.17;;;14.80;1.00;;;;;;5020103;28;20181;-78
2022/03/25 10:50:57;;;;;;;28.83;16.87;;;14.80;1.00;;;;;;5020090;28;20169;-78
2022/03/25 10:53:26;;;;;;;27.73;17.63;;;15.00;1.00;;;;;;5020411;28;20219;-76
2022/03/25 10:56:10;;;;;;;34.10;17.87;;;15.00;1.00;;;;;;5019909;28;20211;-78
2022/03/25 10:58:36;;;;;;;26.47;17.10;;;15.20;1.00;;;;;;5020672;28;20241;-78
2022/03/25 11:01:06;;;;;;;32.30;17.47;;;15.20;1.00;;;;;;5020653;28;20240;-78
2022/03/25 11:03:32;;;;;;;28.83;18.00;;;15.20;1.00;;;;;;5020075;28;20284;-77
2022/03/25 11:05:58;;;;;;;27.40;16.73;;;15.20;1.00;;;;;;5019398;28;20236;-78
2022/03/25 11:08:23;;;;;;;32.77;17.40;;;15.30;1.00;;;;;;5022211;28;20173;-76
2022/03/25 11:10:50;;;;;;;30.30;17.53;;;15.30;1.00;;;;;;5024016;28;20181;-78
2022/03/25 11:13:17;;;;;;;30.13;16.63;;;15.40;1.00;;;;;;5024375;28;20196;-78
2022/03/25 11:15:44;;;;;;;26.80;16.83;;;15.40;1.00;;;;;;5022283;28;20181;-78
2022/03/25 11:18:11;;;;;;;30.37;17.93;;;15.50;1.00;;;;;;5021884;28;20192;-78
2022/03/25 11:20:38;;;;;;;27.83;17.13;;;15.60;1.00;;;;;;5024508;28;20208;-78
2022/03/25 11:23:15;;;;;;;28.03;17.13;;;15.60;1.00;;;;;;5027439;28;20209;-78
2022/03/25 11:25:52;;;;;;;28.30;17.20;;;15.70;1.00;;;;;;5024159;28;20200;-79
2022/03/25 11:28:30;;;;;;;24.50;16.40;;;15.80;1.00;;;;;;5024158;28;20612;-78
2022/03/25 11:31:01;;;;;;;27.73;15.40;;;15.80;1.00;;;;;;5028132;28;20204;-78
2022/03/25 11:33:27;;;;;;;24.13;15.97;;;15.90;1.00;;;;;;5029605;28;20204;-78
2022/03/25 11:36:14;;;;;;;28.10;15.87;;;15.90;1.00;;;;;;5029992;28;20189;-78
2022/03/25 11:38:41;;;;;;;26.50;15.83;;;16.00;1.00;;;;;;5025094;28;20255;-78
2022/03/25 11:41:24;;;;;;;29.30;16.30;;;16.10;1.00;;;;;;5021047;28;20177;-79
2022/03/25 11:44:15;;;;;;;29.00;15.73;;;16.30;1.00;;;;;;5025682;28;20201;-78
2022/03/25 11:46:59;;;;;;;27.67;15.13;;;16.30;1.00;;;;;;5022084;28;20206;-76
2022/03/25 11:49:29;;;;;;;21.97;13.30;;;16.40;1.00;;;;;;5020799;28;20177;-78
2022/03/25 11:51:55;;;;;;;20.23;14.03;;;16.40;1.00;;;;;;5021836;28;20189;-77
2022/03/25 11:54:41;;;;;;;23.37;12.27;;;16.40;99.90;;;;;;5022522;28;20188;-78
2022/03/25 11:57:23;;;;;;;21.73;10.90;;;16.50;99.90;;;;;;5022099;28;20247;-78
2022/03/25 11:59:55;;;;;;;21.40;12.33;;;16.50;99.90;;;;;;5021510;28;20618;-78
2022/03/25 12:02:38;;;;;;;28.13;14.97;;;16.50;99.90;;;;;;5021242;28;20177;-78
2022/03/25 12:05:25;;;;;;;29.23;15.07;;;16.50;1.00;;;;;;5022709;28;20180;-78
2022/03/25 12:08:21;;;;;;;23.50;12.73;;;16.50;99.90;;;;;;5020502;28;20194;-78
2022/03/25 12:10:49;;;;;;;22.67;10.30;;;16.50;99.90;;;;;;5019593;28;20191;-78
2022/03/25 12:13:15;;;;;;;20.00;11.63;;;16.50;99.90;;;;;;5019780;28;20758;-78
2022/03/25 12:15:49;;;;;;;20.93;12.60;;;16.50;99.90;;;;;;5020199;28;20184;-78
2022/03/25 12:18:46;;;;;;;23.20;11.43;;;16.50;99.90;;;;;;5020439;28;20161;-78
2022/03/25 12:21:21;;;;;;;19.13;11.07;;;16.50;99.90;;;;;;5019573;28;20196;-78
2022/03/25 12:24:00;;;;;;;20.20;12.43;;;16.60;99.90;;;;;;5019342;28;20203;-78
2022/03/25 12:26:29;;;;;;;20.73;13.10;;;16.70;99.90;;;;;;5019521;28;20225;-78
2022/03/25 12:28:54;;;;;;;24.37;13.07;;;16.60;99.90;;;;;;5019453;28;20197;-78
2022/03/25 12:31:20;;;;;;;20.43;12.93;;;16.60;99.90;;;;;;5018512;28;20169;-78
2022/03/25 12:33:56;;;;;;;20.20;13.23;;;16.70;99.90;;;;;;5019199;28;20291;-78
2022/03/25 12:36:23;;;;;;;23.00;14.10;;;16.80;99.90;;;;;;5021002;28;20161;-78
2022/03/25 12:38:54;;;;;;;28.87;14.10;;;16.80;99.90;;;;;;5023049;28;20196;-77
2022/03/25 12:41:27;;;;;;;24.10;15.03;;;16.90;99.90;;;;;;5023140;28;20625;-79
2022/03/25 12:44:02;;;;;;;24.07;14.60;;;16.80;99.90;;;;;;5019999;28;20201;-77
2022/03/25 12:46:29;;;;;;;25.90;15.07;;;16.90;99.90;;;;;;5021211;28;20710;-78